sensor_id;sensor_type;location;lat;lon;timestamp;P1;durP1;ratioP1;P2;durP2;ratioP2
68144;SDS011;55400;51.824;-0.196;2023-08-31T00:02:53;3.80;;;1.60;;
68144;SDS011;55400;51.824;-0.196;2023-08-31T00:06:53;3.80;;;1.90;;
68144;SDS011;55400;51.824;-0.196;2023-08-31T00:10:55;4.10;;;1.70;;
68144;SDS011;55400;51.824;-0.196;2023-08-31T00:14:53;3.00;;;2.00;;
68144;SDS011;55400;51.824;-0.196;2023-08-31T00:18:53;2.60;;;1.40;;
68144;SDS011;55400;51.824;-0.196;2023-08-31T00:22:53;2.90;;;1.40;;
68144;SDS011;55400;51.824;-0.196;2023-08-31T00:26:53;2.30;;;1.70;;
68144;SDS011;55400;51.824;-0.196;2023-08-31T00:30:53;3.80;;;1.70;;
68144;SDS011;55400;51.824;-0.196;2023-08-31T00:35:27;4.30;;;1.80;;
68144;SDS011;55400;51.824;-0.196;2023-08-31T00:38:53;3.90;;;1.40;;
68144;SDS011;55400;51.824;-0.196;2023-08-31T00:42:53;2.80;;;1.50;;
68144;SDS011;55400;51.824;-0.196;2023-08-31T00:46:54;3.60;;;1.60;;
68144;SDS011;55400;51.824;-0.196;2023-08-31T00:50:53;4.00;;;1.60;;
68144;SDS011;55400;51.824;-0.196;2023-08-31T00:54:54;2.40;;;1.60;;
68144;SDS011;55400;51.824;-0.196;2023-08-31T00:58:53;3.30;;;1.60;;
68144;SDS011;55400;51.824;-0.196;2023-08-31T01:03:00;1.90;;;1.40;;
68144;SDS011;55400;51.824;-0.196;2023-08-31T01:06:59;3.00;;;1.60;;
68144;SDS011;55400;51.824;-0.196;2023-08-31T01:11:00;3.40;;;1.70;;
68144;SDS011;55400;51.824;-0.196;2023-08-31T01:14:56;2.60;;;1.60;;
68144;SDS011;55400;51.824;-0.196;2023-08-31T01:18:53;4.20;;;1.40;;
68144;SDS011;55400;51.824;-0.196;2023-08-31T01:22:59;2.90;;;1.70;;
68144;SDS011;55400;51.824;-0.196;2023-08-31T01:30:53;4.90;;;1.80;;
68144;SDS011;55400;51.824;-0.196;2023-08-31T01:34:53;3.00;;;1.90;;
68144;SDS011;55400;51.824;-0.196;2023-08-31T01:38:58;3.00;;;1.70;;
68144;SDS011;55400;51.824;-0.196;2023-08-31T01:42:54;4.20;;;1.90;;
68144;SDS011;55400;51.824;-0.196;2023-08-31T01:48:24;2.10;;;1.40;;
68144;SDS011;55400;51.824;-0.196;2023-08-31T01:50:53;3.10;;;1.70;;
68144;SDS011;55400;51.824;-0.196;2023-08-31T01:54:53;3.50;;;1.70;;
68144;SDS011;55400;51.824;-0.196;2023-08-31T02:02:53;2.90;;;2.00;;
68144;SDS011;55400;51.824;-0.196;2023-08-31T02:06:53;3.10;;;1.90;;
68144;SDS011;55400;51.824;-0.196;2023-08-31T02:11:48;3.60;;;2.00;;
68144;SDS011;55400;51.824;-0.196;2023-08-31T02:14:53;5.70;;;2.20;;
68144;SDS011;55400;51.824;-0.196;2023-08-31T02:18:53;4.70;;;2.10;;
68144;SDS011;55400;51.824;-0.196;2023-08-31T02:22:53;4.70;;;1.90;;
68144;SDS011;55400;51.824;-0.196;2023-08-31T02:26:54;3.70;;;2.00;;
68144;SDS011;55400;51.824;-0.196;2023-08-31T02:31:02;2.30;;;1.70;;
68144;SDS011;55400;51.824;-0.196;2023-08-31T02:34:53;2.90;;;1.60;;
68144;SDS011;55400;51.824;-0.196;2023-08-31T02:38:53;3.10;;;1.70;;
68144;SDS011;55400;51.824;-0.196;2023-08-31T02:46:53;4.40;;;1.80;;
68144;SDS011;55400;51.824;-0.196;2023-08-31T02:50:53;4.00;;;1.90;;
68144;SDS011;55400;51.824;-0.196;2023-08-31T02:54:53;5.30;;;1.50;;
68144;SDS011;55400;51.824;-0.196;2023-08-31T03:02:54;3.90;;;1.50;;
68144;SDS011;55400;51.824;-0.196;2023-08-31T03:14:54;3.00;;;1.80;;
68144;SDS011;55400;51.824;-0.196;2023-08-31T03:18:53;3.20;;;1.80;;
68144;SDS011;55400;51.824;-0.196;2023-08-31T03:22:54;3.20;;;1.80;;
68144;SDS011;55400;51.824;-0.196;2023-08-31T03:26:53;3.60;;;1.60;;
68144;SDS011;55400;51.824;-0.196;2023-08-31T03:30:54;3.10;;;1.50;;
68144;SDS011;55400;51.824;-0.196;2023-08-31T03:34:54;2.50;;;1.70;;
68144;SDS011;55400;51.824;-0.196;2023-08-31T03:38:54;1.90;;;1.50;;
68144;SDS011;55400;51.824;-0.196;2023-08-31T03:42:54;2.10;;;1.40;;
68144;SDS011;55400;51.824;-0.196;2023-08-31T03:46:54;2.60;;;1.50;;
68144;SDS011;55400;51.824;-0.196;2023-08-31T03:50:54;2.80;;;1.70;;
68144;SDS011;55400;51.824;-0.196;2023-08-31T03:54:54;3.10;;;1.80;;
68144;SDS011;55400;51.824;-0.196;2023-08-31T03:58:54;2.30;;;1.50;;
68144;SDS011;55400;51.824;-0.196;2023-08-31T04:02:54;3.70;;;1.60;;
68144;SDS011;55400;51.824;-0.196;2023-08-31T04:06:54;1.70;;;1.40;;
68144;SDS011;55400;51.824;-0.196;2023-08-31T04:14:54;1.90;;;1.50;;
68144;SDS011;55400;51.824;-0.196;2023-08-31T04:18:54;3.10;;;1.50;;
68144;SDS011;55400;51.824;-0.196;2023-08-31T04:22:54;2.50;;;1.60;;
68144;SDS011;55400;51.824;-0.196;2023-08-31T04:26:54;3.30;;;1.80;;
68144;SDS011;55400;51.824;-0.196;2023-08-31T04:30:54;3.40;;;1.30;;
68144;SDS011;55400;51.824;-0.196;2023-08-31T04:34:54;5.70;;;2.00;;
68144;SDS011;55400;51.824;-0.196;2023-08-31T04:38:54;2.10;;;1.50;;
68144;SDS011;55400;51.824;-0.196;2023-08-31T04:42:54;2.90;;;1.60;;
68144;SDS011;55400;51.824;-0.196;2023-08-31T04:46:54;3.40;;;1.80;;
68144;SDS011;55400;51.824;-0.196;2023-08-31T04:50:56;2.80;;;1.60;;
68144;SDS011;55400;51.824;-0.196;2023-08-31T04:54:54;3.10;;;1.50;;
68144;SDS011;55400;51.824;-0.196;2023-08-31T04:58:54;2.80;;;1.50;;
68144;SDS011;55400;51.824;-0.196;2023-08-31T05:05:24;2.00;;;1.40;;
68144;SDS011;55400;51.824;-0.196;2023-08-31T05:10:54;1.90;;;1.40;;
68144;SDS011;55400;51.824;-0.196;2023-08-31T05:14:54;4.70;;;1.70;;
68144;SDS011;55400;51.824;-0.196;2023-08-31T05:18:54;3.60;;;1.70;;
68144;SDS011;55400;51.824;-0.196;2023-08-31T05:22:54;2.50;;;1.70;;
68144;SDS011;55400;51.824;-0.196;2023-08-31T05:26:54;2.50;;;1.60;;
68144;SDS011;55400;51.824;-0.196;2023-08-31T05:30:56;3.80;;;1.80;;
68144;SDS011;55400;51.824;-0.196;2023-08-31T05:34:54;3.40;;;1.60;;
68144;SDS011;55400;51.824;-0.196;2023-08-31T05:38:54;3.30;;;1.60;;
68144;SDS011;55400;51.824;-0.196;2023-08-31T05:42:54;2.10;;;1.40;;
68144;SDS011;55400;51.824;-0.196;2023-08-31T05:46:54;2.70;;;1.50;;
68144;SDS011;55400;51.824;-0.196;2023-08-31T05:50:54;3.70;;;1.80;;
68144;SDS011;55400;51.824;-0.196;2023-08-31T05:54:54;4.10;;;2.10;;
68144;SDS011;55400;51.824;-0.196;2023-08-31T05:58:54;3.60;;;2.00;;
68144;SDS011;55400;51.824;-0.196;2023-08-31T06:02:54;5.00;;;1.80;;
68144;SDS011;55400;51.824;-0.196;2023-08-31T06:06:54;5.70;;;1.90;;
68144;SDS011;55400;51.824;-0.196;2023-08-31T06:10:54;5.80;;;1.90;;
68144;SDS011;55400;51.824;-0.196;2023-08-31T06:14:54;5.60;;;2.00;;
68144;SDS011;55400;51.824;-0.196;2023-08-31T06:18:54;5.10;;;1.90;;
68144;SDS011;55400;51.824;-0.196;2023-08-31T06:22:54;4.00;;;1.80;;
68144;SDS011;55400;51.824;-0.196;2023-08-31T06:26:54;6.10;;;2.10;;
68144;SDS011;55400;51.824;-0.196;2023-08-31T06:30:54;5.30;;;1.80;;
68144;SDS011;55400;51.824;-0.196;2023-08-31T06:34:54;4.10;;;1.80;;
68144;SDS011;55400;51.824;-0.196;2023-08-31T06:38:54;6.90;;;2.00;;
68144;SDS011;55400;51.824;-0.196;2023-08-31T06:42:54;4.20;;;1.80;;
68144;SDS011;55400;51.824;-0.196;2023-08-31T06:46:54;4.30;;;1.60;;
68144;SDS011;55400;51.824;-0.196;2023-08-31T06:50:54;2.60;;;1.20;;
68144;SDS011;55400;51.824;-0.196;2023-08-31T06:54:54;1.40;;;1.30;;
68144;SDS011;55400;51.824;-0.196;2023-08-31T06:58:54;3.90;;;1.50;;
68144;SDS011;55400;51.824;-0.196;2023-08-31T07:02:54;3.00;;;1.50;;
68144;SDS011;55400;51.824;-0.196;2023-08-31T07:06:54;2.80;;;1.60;;
68144;SDS011;55400;51.824;-0.196;2023-08-31T07:10:54;1.70;;;1.30;;
68144;SDS011;55400;51.824;-0.196;2023-08-31T07:14:55;3.10;;;1.70;;
68144;SDS011;55400;51.824;-0.196;2023-08-31T07:20:23;7.00;;;2.60;;
68144;SDS011;55400;51.824;-0.196;2023-08-31T07:22:54;4.80;;;2.20;;
68144;SDS011;55400;51.824;-0.196;2023-08-31T07:26:54;4.30;;;2.00;;
68144;SDS011;55400;51.824;-0.196;2023-08-31T07:31:01;4.70;;;2.10;;
68144;SDS011;55400;51.824;-0.196;2023-08-31T07:34:54;5.50;;;2.20;;
68144;SDS011;55400;51.824;-0.196;2023-08-31T07:38:54;4.50;;;1.70;;
68144;SDS011;55400;51.824;-0.196;2023-08-31T07:42:54;7.10;;;1.70;;
68144;SDS011;55400;51.824;-0.196;2023-08-31T07:50:55;3.80;;;2.10;;
68144;SDS011;55400;51.824;-0.196;2023-08-31T07:54:54;2.00;;;1.60;;
68144;SDS011;55400;51.824;-0.196;2023-08-31T07:58:54;5.30;;;1.70;;
68144;SDS011;55400;51.824;-0.196;2023-08-31T08:02:54;4.10;;;1.70;;
68144;SDS011;55400;51.824;-0.196;2023-08-31T08:06:54;12.30;;;1.90;;
68144;SDS011;55400;51.824;-0.196;2023-08-31T08:10:54;6.10;;;1.60;;
68144;SDS011;55400;51.824;-0.196;2023-08-31T08:14:54;7.20;;;2.00;;
68144;SDS011;55400;51.824;-0.196;2023-08-31T08:18:54;8.60;;;1.90;;
68144;SDS011;55400;51.824;-0.196;2023-08-31T08:22:55;5.10;;;2.40;;
68144;SDS011;55400;51.824;-0.196;2023-08-31T08:30:54;9.90;;;1.90;;
68144;SDS011;55400;51.824;-0.196;2023-08-31T08:34:54;2.80;;;1.70;;
68144;SDS011;55400;51.824;-0.196;2023-08-31T08:38:55;3.70;;;1.70;;
68144;SDS011;55400;51.824;-0.196;2023-08-31T08:42:55;2.80;;;1.70;;
68144;SDS011;55400;51.824;-0.196;2023-08-31T08:46:57;2.50;;;1.50;;
68144;SDS011;55400;51.824;-0.196;2023-08-31T08:50:55;5.40;;;1.60;;
68144;SDS011;55400;51.824;-0.196;2023-08-31T08:55:47;4.10;;;1.70;;
68144;SDS011;55400;51.824;-0.196;2023-08-31T09:02:22;3.80;;;1.60;;
68144;SDS011;55400;51.824;-0.196;2023-08-31T09:06:22;3.60;;;1.80;;
68144;SDS011;55400;51.824;-0.196;2023-08-31T09:06:55;3.90;;;1.80;;
68144;SDS011;55400;51.824;-0.196;2023-08-31T09:14:57;3.50;;;1.50;;
68144;SDS011;55400;51.824;-0.196;2023-08-31T09:18:23;3.50;;;1.50;;
68144;SDS011;55400;51.824;-0.196;2023-08-31T09:18:55;3.80;;;1.60;;
68144;SDS011;55400;51.824;-0.196;2023-08-31T09:22:55;5.10;;;1.60;;
68144;SDS011;55400;51.824;-0.196;2023-08-31T09:27:20;5.50;;;3.10;;
68144;SDS011;55400;51.824;-0.196;2023-08-31T09:34:55;4.00;;;1.60;;
68144;SDS011;55400;51.824;-0.196;2023-08-31T09:38:57;4.50;;;1.60;;
68144;SDS011;55400;51.824;-0.196;2023-08-31T09:42:55;4.60;;;1.60;;
68144;SDS011;55400;51.824;-0.196;2023-08-31T09:46:55;3.90;;;1.50;;
68144;SDS011;55400;51.824;-0.196;2023-08-31T09:50:55;4.50;;;1.50;;
68144;SDS011;55400;51.824;-0.196;2023-08-31T10:02:56;2.20;;;1.40;;
68144;SDS011;55400;51.824;-0.196;2023-08-31T10:10:55;8.10;;;2.10;;
68144;SDS011;55400;51.824;-0.196;2023-08-31T10:14:55;6.50;;;1.60;;
68144;SDS011;55400;51.824;-0.196;2023-08-31T10:18:56;6.80;;;1.90;;
68144;SDS011;55400;51.824;-0.196;2023-08-31T10:22:55;4.10;;;1.80;;
68144;SDS011;55400;51.824;-0.196;2023-08-31T10:26:55;5.10;;;1.90;;
68144;SDS011;55400;51.824;-0.196;2023-08-31T10:31:03;6.70;;;2.00;;
68144;SDS011;55400;51.824;-0.196;2023-08-31T10:35:07;2.90;;;1.60;;
68144;SDS011;55400;51.824;-0.196;2023-08-31T10:39:00;3.80;;;1.80;;
68144;SDS011;55400;51.824;-0.196;2023-08-31T10:43:14;4.50;;;1.70;;
68144;SDS011;55400;51.824;-0.196;2023-08-31T10:46:55;3.50;;;1.70;;
68144;SDS011;55400;51.824;-0.196;2023-08-31T10:50:58;5.30;;;2.40;;
68144;SDS011;55400;51.824;-0.196;2023-08-31T10:54:55;3.40;;;1.70;;
68144;SDS011;55400;51.824;-0.196;2023-08-31T10:58:57;3.80;;;1.70;;
68144;SDS011;55400;51.824;-0.196;2023-08-31T11:02:55;3.20;;;1.50;;
68144;SDS011;55400;51.824;-0.196;2023-08-31T11:07:13;4.10;;;1.80;;
68144;SDS011;55400;51.824;-0.196;2023-08-31T11:10:55;2.60;;;1.60;;
68144;SDS011;55400;51.824;-0.196;2023-08-31T11:14:55;5.50;;;1.90;;
68144;SDS011;55400;51.824;-0.196;2023-08-31T11:18:55;3.10;;;1.90;;
68144;SDS011;55400;51.824;-0.196;2023-08-31T11:22:55;2.20;;;1.80;;
68144;SDS011;55400;51.824;-0.196;2023-08-31T11:26:55;5.30;;;1.70;;
68144;SDS011;55400;51.824;-0.196;2023-08-31T11:34:55;6.30;;;1.70;;
68144;SDS011;55400;51.824;-0.196;2023-08-31T11:38:55;3.50;;;1.50;;
68144;SDS011;55400;51.824;-0.196;2023-08-31T11:42:56;2.30;;;1.30;;
68144;SDS011;55400;51.824;-0.196;2023-08-31T11:46:55;2.80;;;1.30;;
68144;SDS011;55400;51.824;-0.196;2023-08-31T11:50:55;2.80;;;1.40;;
68144;SDS011;55400;51.824;-0.196;2023-08-31T11:54:55;2.50;;;1.50;;
68144;SDS011;55400;51.824;-0.196;2023-08-31T11:58:55;2.50;;;1.20;;
68144;SDS011;55400;51.824;-0.196;2023-08-31T12:02:56;4.20;;;1.20;;
68144;SDS011;55400;51.824;-0.196;2023-08-31T12:07:03;4.60;;;1.30;;
68144;SDS011;55400;51.824;-0.196;2023-08-31T12:10:55;2.60;;;1.20;;
68144;SDS011;55400;51.824;-0.196;2023-08-31T12:14:59;2.90;;;1.10;;
68144;SDS011;55400;51.824;-0.196;2023-08-31T12:18:58;2.40;;;1.40;;
68144;SDS011;55400;51.824;-0.196;2023-08-31T12:22:55;3.00;;;1.40;;
68144;SDS011;55400;51.824;-0.196;2023-08-31T12:26:55;2.30;;;1.10;;
68144;SDS011;55400;51.824;-0.196;2023-08-31T12:30:55;4.10;;;1.50;;
68144;SDS011;55400;51.824;-0.196;2023-08-31T12:34:55;3.00;;;1.50;;
68144;SDS011;55400;51.824;-0.196;2023-08-31T12:38:55;2.50;;;0.80;;
68144;SDS011;55400;51.824;-0.196;2023-08-31T12:42:55;1.70;;;1.30;;
68144;SDS011;55400;51.824;-0.196;2023-08-31T12:50:55;3.90;;;1.40;;
68144;SDS011;55400;51.824;-0.196;2023-08-31T12:54:55;2.10;;;1.70;;
68144;SDS011;55400;51.824;-0.196;2023-08-31T12:58:55;3.70;;;1.60;;
68144;SDS011;55400;51.824;-0.196;2023-08-31T13:02:55;3.00;;;1.30;;
68144;SDS011;55400;51.824;-0.196;2023-08-31T13:06:55;2.50;;;1.20;;
68144;SDS011;55400;51.824;-0.196;2023-08-31T13:10:55;3.30;;;1.40;;
68144;SDS011;55400;51.824;-0.196;2023-08-31T13:14:56;4.00;;;1.50;;
68144;SDS011;55400;51.824;-0.196;2023-08-31T13:18:55;2.30;;;1.40;;
68144;SDS011;55400;51.824;-0.196;2023-08-31T13:22:55;2.20;;;1.30;;
68144;SDS011;55400;51.824;-0.196;2023-08-31T13:26:55;3.70;;;1.30;;
68144;SDS011;55400;51.824;-0.196;2023-08-31T13:30:56;2.90;;;1.50;;
68144;SDS011;55400;51.824;-0.196;2023-08-31T13:34:55;3.30;;;1.80;;
68144;SDS011;55400;51.824;-0.196;2023-08-31T13:38:56;2.80;;;1.20;;
68144;SDS011;55400;51.824;-0.196;2023-08-31T13:42:57;3.70;;;1.60;;
68144;SDS011;55400;51.824;-0.196;2023-08-31T13:50:55;4.10;;;1.50;;
68144;SDS011;55400;51.824;-0.196;2023-08-31T13:54:55;4.30;;;1.80;;
68144;SDS011;55400;51.824;-0.196;2023-08-31T13:59:07;3.20;;;1.60;;
68144;SDS011;55400;51.824;-0.196;2023-08-31T14:02:55;3.20;;;1.60;;
68144;SDS011;55400;51.824;-0.196;2023-08-31T14:06:55;3.30;;;1.40;;
68144;SDS011;55400;51.824;-0.196;2023-08-31T14:10:55;3.40;;;1.50;;
68144;SDS011;55400;51.824;-0.196;2023-08-31T14:14:55;3.00;;;1.50;;
68144;SDS011;55400;51.824;-0.196;2023-08-31T14:18:56;3.40;;;1.90;;
68144;SDS011;55400;51.824;-0.196;2023-08-31T14:22:57;3.40;;;1.60;;
68144;SDS011;55400;51.824;-0.196;2023-08-31T14:26:55;8.40;;;1.90;;
68144;SDS011;55400;51.824;-0.196;2023-08-31T14:30:56;3.10;;;1.70;;
68144;SDS011;55400;51.824;-0.196;2023-08-31T14:34:55;3.20;;;1.60;;
68144;SDS011;55400;51.824;-0.196;2023-08-31T14:38:55;4.90;;;2.00;;
68144;SDS011;55400;51.824;-0.196;2023-08-31T14:46:56;3.00;;;1.70;;
68144;SDS011;55400;51.824;-0.196;2023-08-31T14:50:56;3.10;;;1.60;;
68144;SDS011;55400;51.824;-0.196;2023-08-31T14:54:55;4.60;;;1.90;;
68144;SDS011;55400;51.824;-0.196;2023-08-31T14:58:55;4.00;;;1.40;;
68144;SDS011;55400;51.824;-0.196;2023-08-31T15:06:56;2.10;;;1.50;;
68144;SDS011;55400;51.824;-0.196;2023-08-31T15:10:55;4.20;;;1.70;;
68144;SDS011;55400;51.824;-0.196;2023-08-31T15:14:56;4.40;;;1.50;;
68144;SDS011;55400;51.824;-0.196;2023-08-31T15:18:56;3.80;;;1.40;;
68144;SDS011;55400;51.824;-0.196;2023-08-31T15:22:56;3.80;;;1.50;;
68144;SDS011;55400;51.824;-0.196;2023-08-31T15:26:56;3.40;;;1.30;;
68144;SDS011;55400;51.824;-0.196;2023-08-31T15:30:56;4.60;;;1.30;;
68144;SDS011;55400;51.824;-0.196;2023-08-31T15:34:56;2.50;;;1.10;;
68144;SDS011;55400;51.824;-0.196;2023-08-31T15:38:56;1.90;;;1.30;;
68144;SDS011;55400;51.824;-0.196;2023-08-31T15:42:56;3.70;;;1.40;;
68144;SDS011;55400;51.824;-0.196;2023-08-31T15:46:56;3.50;;;1.40;;
68144;SDS011;55400;51.824;-0.196;2023-08-31T15:50:57;3.60;;;1.30;;
68144;SDS011;55400;51.824;-0.196;2023-08-31T15:54:56;1.90;;;1.40;;
68144;SDS011;55400;51.824;-0.196;2023-08-31T15:58:56;2.20;;;1.50;;
68144;SDS011;55400;51.824;-0.196;2023-08-31T16:02:56;3.10;;;1.50;;
68144;SDS011;55400;51.824;-0.196;2023-08-31T16:06:56;2.70;;;1.30;;
68144;SDS011;55400;51.824;-0.196;2023-08-31T16:11:15;1.50;;;1.00;;
68144;SDS011;55400;51.824;-0.196;2023-08-31T16:14:56;2.60;;;1.20;;
68144;SDS011;55400;51.824;-0.196;2023-08-31T16:18:56;5.10;;;1.30;;
68144;SDS011;55400;51.824;-0.196;2023-08-31T16:22:56;1.90;;;0.90;;
68144;SDS011;55400;51.824;-0.196;2023-08-31T16:26:56;1.50;;;0.90;;
68144;SDS011;55400;51.824;-0.196;2023-08-31T16:30:56;2.60;;;0.80;;
68144;SDS011;55400;51.824;-0.196;2023-08-31T16:34:56;1.60;;;0.80;;
68144;SDS011;55400;51.824;-0.196;2023-08-31T16:42:56;2.70;;;1.10;;
68144;SDS011;55400;51.824;-0.196;2023-08-31T16:46:56;1.30;;;0.80;;
68144;SDS011;55400;51.824;-0.196;2023-08-31T16:50:56;1.60;;;0.70;;
68144;SDS011;55400;51.824;-0.196;2023-08-31T16:58:56;2.80;;;0.80;;
68144;SDS011;55400;51.824;-0.196;2023-08-31T17:02:56;5.20;;;1.10;;
68144;SDS011;55400;51.824;-0.196;2023-08-31T17:06:56;2.60;;;1.10;;
68144;SDS011;55400;51.824;-0.196;2023-08-31T17:10:56;2.30;;;0.80;;
68144;SDS011;55400;51.824;-0.196;2023-08-31T17:14:56;2.60;;;1.30;;
68144;SDS011;55400;51.824;-0.196;2023-08-31T17:18:56;1.50;;;0.90;;
68144;SDS011;55400;51.824;-0.196;2023-08-31T17:22:56;1.10;;;0.60;;
68144;SDS011;55400;51.824;-0.196;2023-08-31T17:26:56;2.20;;;1.20;;
68144;SDS011;55400;51.824;-0.196;2023-08-31T17:30:56;2.70;;;0.90;;
68144;SDS011;55400;51.824;-0.196;2023-08-31T17:34:56;1.80;;;1.00;;
68144;SDS011;55400;51.824;-0.196;2023-08-31T17:38:56;2.40;;;0.80;;
68144;SDS011;55400;51.824;-0.196;2023-08-31T17:42:56;4.00;;;1.20;;
68144;SDS011;55400;51.824;-0.196;2023-08-31T17:46:56;2.70;;;1.00;;
68144;SDS011;55400;51.824;-0.196;2023-08-31T17:54:56;2.00;;;1.00;;
68144;SDS011;55400;51.824;-0.196;2023-08-31T17:58:56;1.10;;;0.80;;
68144;SDS011;55400;51.824;-0.196;2023-08-31T18:02:56;3.20;;;1.00;;
68144;SDS011;55400;51.824;-0.196;2023-08-31T18:06:56;1.60;;;1.20;;
68144;SDS011;55400;51.824;-0.196;2023-08-31T18:10:58;1.70;;;1.30;;
68144;SDS011;55400;51.824;-0.196;2023-08-31T18:14:56;2.30;;;1.20;;
68144;SDS011;55400;51.824;-0.196;2023-08-31T18:18:56;3.30;;;1.10;;
68144;SDS011;55400;51.824;-0.196;2023-08-31T18:22:56;3.80;;;1.40;;
68144;SDS011;55400;51.824;-0.196;2023-08-31T18:26:56;2.70;;;1.60;;
68144;SDS011;55400;51.824;-0.196;2023-08-31T18:30:57;1.60;;;1.30;;
68144;SDS011;55400;51.824;-0.196;2023-08-31T18:34:56;1.60;;;1.50;;
68144;SDS011;55400;51.824;-0.196;2023-08-31T18:38:56;3.90;;;1.80;;
68144;SDS011;55400;51.824;-0.196;2023-08-31T18:42:56;2.40;;;1.40;;
68144;SDS011;55400;51.824;-0.196;2023-08-31T18:46:56;1.50;;;1.10;;
68144;SDS011;55400;51.824;-0.196;2023-08-31T18:50:57;1.30;;;1.20;;
68144;SDS011;55400;51.824;-0.196;2023-08-31T18:54:56;2.00;;;1.60;;
68144;SDS011;55400;51.824;-0.196;2023-08-31T18:58:56;2.50;;;1.30;;
68144;SDS011;55400;51.824;-0.196;2023-08-31T19:02:56;2.60;;;1.40;;
68144;SDS011;55400;51.824;-0.196;2023-08-31T19:06:56;4.20;;;1.60;;
68144;SDS011;55400;51.824;-0.196;2023-08-31T19:10:56;3.00;;;1.50;;
68144;SDS011;55400;51.824;-0.196;2023-08-31T19:14:56;1.70;;;1.30;;
68144;SDS011;55400;51.824;-0.196;2023-08-31T19:18:56;4.30;;;1.50;;
68144;SDS011;55400;51.824;-0.196;2023-08-31T19:26:56;2.10;;;1.40;;
68144;SDS011;55400;51.824;-0.196;2023-08-31T19:30:56;2.10;;;1.30;;
68144;SDS011;55400;51.824;-0.196;2023-08-31T19:34:56;2.90;;;1.50;;
68144;SDS011;55400;51.824;-0.196;2023-08-31T19:38:56;1.80;;;1.50;;
68144;SDS011;55400;51.824;-0.196;2023-08-31T19:42:56;3.10;;;1.60;;
68144;SDS011;55400;51.824;-0.196;2023-08-31T19:46:56;2.60;;;1.30;;
68144;SDS011;55400;51.824;-0.196;2023-08-31T19:51:03;2.40;;;1.60;;
68144;SDS011;55400;51.824;-0.196;2023-08-31T19:54:57;1.80;;;1.30;;
68144;SDS011;55400;51.824;-0.196;2023-08-31T19:58:56;2.70;;;1.30;;
68144;SDS011;55400;51.824;-0.196;2023-08-31T20:02:57;2.50;;;1.30;;
68144;SDS011;55400;51.824;-0.196;2023-08-31T20:06:56;2.00;;;1.50;;
68144;SDS011;55400;51.824;-0.196;2023-08-31T20:10:58;2.90;;;1.30;;
68144;SDS011;55400;51.824;-0.196;2023-08-31T20:14:56;2.90;;;1.70;;
68144;SDS011;55400;51.824;-0.196;2023-08-31T20:18:56;2.70;;;1.50;;
68144;SDS011;55400;51.824;-0.196;2023-08-31T20:22:57;2.20;;;1.60;;
68144;SDS011;55400;51.824;-0.196;2023-08-31T20:26:56;2.30;;;1.40;;
68144;SDS011;55400;51.824;-0.196;2023-08-31T20:30:57;2.20;;;1.60;;
68144;SDS011;55400;51.824;-0.196;2023-08-31T20:34:57;2.90;;;1.90;;
68144;SDS011;55400;51.824;-0.196;2023-08-31T20:38:56;2.00;;;1.60;;
68144;SDS011;55400;51.824;-0.196;2023-08-31T20:42:56;2.30;;;1.30;;
68144;SDS011;55400;51.824;-0.196;2023-08-31T20:46:57;2.80;;;1.60;;
68144;SDS011;55400;51.824;-0.196;2023-08-31T20:51:00;3.00;;;1.50;;
68144;SDS011;55400;51.824;-0.196;2023-08-31T20:54:57;2.30;;;1.40;;
68144;SDS011;55400;51.824;-0.196;2023-08-31T20:58:57;2.30;;;1.60;;
68144;SDS011;55400;51.824;-0.196;2023-08-31T21:02:56;2.20;;;1.60;;
68144;SDS011;55400;51.824;-0.196;2023-08-31T21:06:57;1.70;;;1.60;;
68144;SDS011;55400;51.824;-0.196;2023-08-31T21:10:57;2.60;;;1.50;;
68144;SDS011;55400;51.824;-0.196;2023-08-31T21:14:57;2.20;;;1.80;;
68144;SDS011;55400;51.824;-0.196;2023-08-31T21:18:57;3.80;;;1.80;;
68144;SDS011;55400;51.824;-0.196;2023-08-31T21:22:57;3.30;;;2.10;;
68144;SDS011;55400;51.824;-0.196;2023-08-31T21:26:57;2.20;;;1.60;;
68144;SDS011;55400;51.824;-0.196;2023-08-31T21:34:57;1.70;;;1.60;;
68144;SDS011;55400;51.824;-0.196;2023-08-31T21:42:57;2.30;;;1.90;;
68144;SDS011;55400;51.824;-0.196;2023-08-31T21:46:57;3.60;;;1.90;;
68144;SDS011;55400;51.824;-0.196;2023-08-31T21:50:57;2.40;;;1.80;;
68144;SDS011;55400;51.824;-0.196;2023-08-31T21:54:57;2.50;;;1.90;;
68144;SDS011;55400;51.824;-0.196;2023-08-31T21:58:57;2.40;;;2.00;;
68144;SDS011;55400;51.824;-0.196;2023-08-31T22:02:57;3.10;;;1.80;;
68144;SDS011;55400;51.824;-0.196;2023-08-31T22:06:57;2.70;;;2.20;;
68144;SDS011;55400;51.824;-0.196;2023-08-31T22:10:57;10.50;;;2.10;;
68144;SDS011;55400;51.824;-0.196;2023-08-31T22:15:00;3.10;;;1.90;;
68144;SDS011;55400;51.824;-0.196;2023-08-31T22:18:57;2.40;;;1.90;;
68144;SDS011;55400;51.824;-0.196;2023-08-31T22:22:58;3.30;;;2.00;;
68144;SDS011;55400;51.824;-0.196;2023-08-31T22:26:57;3.10;;;2.10;;
68144;SDS011;55400;51.824;-0.196;2023-08-31T22:30:57;4.50;;;2.00;;
68144;SDS011;55400;51.824;-0.196;2023-08-31T22:34:57;3.60;;;1.90;;
68144;SDS011;55400;51.824;-0.196;2023-08-31T22:38:57;3.90;;;1.80;;
68144;SDS011;55400;51.824;-0.196;2023-08-31T22:42:57;2.70;;;2.00;;
68144;SDS011;55400;51.824;-0.196;2023-08-31T22:46:57;1.80;;;1.70;;
68144;SDS011;55400;51.824;-0.196;2023-08-31T22:50:57;2.80;;;2.00;;
68144;SDS011;55400;51.824;-0.196;2023-08-31T22:54:57;3.20;;;1.80;;
68144;SDS011;55400;51.824;-0.196;2023-08-31T23:02:57;3.70;;;2.00;;
68144;SDS011;55400;51.824;-0.196;2023-08-31T23:06:57;3.20;;;2.20;;
68144;SDS011;55400;51.824;-0.196;2023-08-31T23:10:57;4.50;;;2.70;;
68144;SDS011;55400;51.824;-0.196;2023-08-31T23:18:57;2.30;;;2.00;;
68144;SDS011;55400;51.824;-0.196;2023-08-31T23:22:57;2.50;;;2.10;;
68144;SDS011;55400;51.824;-0.196;2023-08-31T23:26:57;2.20;;;2.00;;
68144;SDS011;55400;51.824;-0.196;2023-08-31T23:30:57;3.00;;;2.30;;
68144;SDS011;55400;51.824;-0.196;2023-08-31T23:34:57;2.30;;;2.10;;
68144;SDS011;55400;51.824;-0.196;2023-08-31T23:42:57;4.90;;;2.30;;
68144;SDS011;55400;51.824;-0.196;2023-08-31T23:46:57;3.40;;;2.30;;
68144;SDS011;55400;51.824;-0.196;2023-08-31T23:50:57;2.80;;;2.10;;
68144;SDS011;55400;51.824;-0.196;2023-08-31T23:54:58;2.70;;;2.10;;
68144;SDS011;55400;51.824;-0.196;2023-08-31T23:58:57;3.80;;;2.30;;
